Hovedside
METAR-TAF:

METAR-TAF

Lufthavner :

Uleåborg lufthavn

Uleåborg, Finland

breddegrad: 64-56N, lengdegrad: 025-22E, høyde over havet: 12 m

Gjeldene værobservasjon

Denne rapporten ble laget for 32 minutter siden, klokken 23:50 UTC
Vind 4 kt fra Sør, skiftende mellom Sørøst og Sør-sørvest
Temperatur 5°C
Luftfuktighet 87%
Trykk 1004 hPa
Sikt 10 km eller mer
ingen skyer under 1500 m og ingen bygeskyer

METAR: EFOU 222350Z AUTO 17004KT 140V200 CAVOK 05/03 Q1004

Tid: 03:22 (00:22 UTC)

Varsel

Denne rapporten ble laget for 52 minutter siden, klokken 23:30 UTC
Varsel gyldig fra 23. klokken 00 UTC til 23. klokken 24 UTC
Vind 4 kt fra Sør-sørvest
Sikt 10 km eller mer
ingen skyer under 1500 m og ingen bygeskyer
Sannsynlighet 30%
fra 23. klokken 01 UTC til 23. klokken 04 UTC
Sikt: 1000 m
tåkebanker

TAF: EFOU 222330Z 2300/2324 20004KT CAVOK PROB30 2301/2304 1000 BCFG

Værobservasjoner og værvarsel for over 4000 flyplasser (METAR- og TAF-rapporter).

Tilgjengelige stasjoner er representert av de røde og gule prikkene på kartet.

Hold musepekeren over prikken for å se navnet på stasjonen.

Klikk så for å se værobservasjoner og -varsler.

For å forandre kartet kan du klikke på den grønne knappen med svart kryss for å zoome inn, på den grønne knappen med strek for å zoome ut, eller på de grønne pilene for å se tilstøtende kart.


METAR-TAF: